Time;durP1;ratioP1;P1;durP2;ratioP2;P2;SDS_P1;SDS_P2;PMS_P1;PMS_P2;Temp;Humidity;BMP_temperature;BMP_pressure;BME280_temperature;BME280_humidity;BME280_pressure;Samples;Min_cycle;Max_cycle;Signal;HPM_P1;HPM_P2
2023/08/07 00:02:25;;;;;;;9.27;5.60;;;14.80;99.90;;;;;;5036603;28;20049;-42
2023/08/07 00:04:51;;;;;;;9.40;5.47;;;14.80;99.90;;;;;;5054567;28;20040;-45
2023/08/07 00:07:18;;;;;;;9.02;4.90;;;14.80;99.90;;;;;;5054706;28;20155;-43
2023/08/07 00:09:43;;;;;;;6.80;4.82;;;14.70;99.90;;;;;;5046005;28;20102;-44
2023/08/07 00:12:09;;;;;;;10.88;5.40;;;14.70;99.90;;;;;;5049867;28;20421;-45
2023/08/07 00:14:35;;;;;;;12.38;5.38;;;14.60;99.90;;;;;;5055386;28;20612;-44
2023/08/07 00:17:00;;;;;;;7.00;4.70;;;14.60;99.90;;;;;;5036387;28;20755;-44
2023/08/07 00:19:26;;;;;;;8.77;4.53;;;14.50;99.90;;;;;;5046945;28;20052;-44
2023/08/07 00:21:52;;;;;;;9.80;6.07;;;14.50;99.90;;;;;;5042556;28;20051;-45
2023/08/07 00:24:17;;;;;;;9.07;4.78;;;14.50;99.90;;;;;;5042382;28;20406;-40
2023/08/07 00:26:43;;;;;;;10.85;5.13;;;14.40;99.90;;;;;;5040226;28;20048;-42
2023/08/07 00:29:09;;;;;;;12.68;5.15;;;14.40;99.90;;;;;;5041959;28;20041;-43
2023/08/07 00:31:34;;;;;;;8.48;4.28;;;14.30;99.90;;;;;;5040133;28;20045;-41
2023/08/07 00:34:00;;;;;;;8.88;4.22;;;14.30;99.90;;;;;;5054532;28;20619;-45
2023/08/07 00:36:28;;;;;;;10.30;4.25;;;14.30;99.90;;;;;;5036316;28;20052;-41
2023/08/07 00:38:54;;;;;;;7.63;3.38;;;14.30;99.90;;;;;;5046286;28;20509;-41
2023/08/07 00:41:20;;;;;;;10.35;3.60;;;14.30;99.90;;;;;;5048395;28;20052;-45
2023/08/07 00:43:46;;;;;;;9.20;3.10;;;14.30;99.90;;;;;;5024891;28;20045;-42
2023/08/07 00:46:11;;;;;;;8.52;3.20;;;14.30;99.90;;;;;;5054310;28;20048;-46
2023/08/07 00:48:38;;;;;;;12.10;3.53;;;14.30;99.90;;;;;;5028304;28;20068;-40
2023/08/07 00:51:07;;;;;;;14.85;3.35;;;14.30;99.90;;;;;;5017454;28;20053;-44
2023/08/07 00:53:34;;;;;;;11.25;4.18;;;14.30;99.90;;;;;;5045366;28;20064;-43
2023/08/07 00:56:02;;;;;;;11.65;3.22;;;14.30;99.90;;;;;;5049725;28;20052;-46
2023/08/07 00:58:28;;;;;;;12.80;3.00;;;14.30;99.90;;;;;;5054059;28;20084;-42
2023/08/07 01:00:53;;;;;;;11.70;3.75;;;14.30;99.90;;;;;;5022473;28;20168;-43
2023/08/07 01:03:19;;;;;;;11.73;4.05;;;14.30;99.90;;;;;;5045349;28;20410;-46
2023/08/07 01:05:45;;;;;;;18.00;3.80;;;14.30;99.90;;;;;;5049627;28;20058;-41
2023/08/07 01:08:11;;;;;;;15.05;3.55;;;14.30;99.90;;;;;;5045450;28;20529;-42
2023/08/07 01:11:08;;;;;;;10.50;3.17;;;14.20;99.90;;;;;;5049230;28;20048;-41
2023/08/07 01:13:42;;;;;;;15.43;3.17;;;14.20;99.90;;;;;;5053230;28;20149;-46
2023/08/07 01:16:18;;;;;;;14.88;3.88;;;14.20;99.90;;;;;;5041407;28;20439;-44
2023/08/07 01:18:46;;;;;;;15.93;3.55;;;14.20;99.90;;;;;;5053850;28;20052;-42
2023/08/07 01:21:21;;;;;;;17.13;3.95;;;14.20;99.90;;;;;;5045392;28;20415;-44
2023/08/07 01:23:47;;;;;;;14.75;3.85;;;14.10;99.90;;;;;;5039041;28;20052;-43
2023/08/07 01:26:19;;;;;;;18.45;4.05;;;14.00;99.90;;;;;;5043301;28;20057;-43
2023/08/07 01:29:11;;;;;;;17.40;3.53;;;14.10;99.90;;;;;;5037531;28;20438;-43
2023/08/07 01:31:40;;;;;;;17.17;4.95;;;14.10;99.90;;;;;;5053023;28;20981;-40
2023/08/07 01:34:08;;;;;;;11.82;3.83;;;14.10;99.90;;;;;;5042984;28;20518;-46
2023/08/07 01:36:34;;;;;;;14.80;3.65;;;14.10;99.90;;;;;;5038234;28;20053;-47
2023/08/07 01:39:03;;;;;;;17.48;3.83;;;14.10;99.90;;;;;;5042332;28;20163;-44
2023/08/07 01:41:29;;;;;;;19.02;4.05;;;14.00;99.90;;;;;;5053313;28;20095;-47
2023/08/07 01:43:55;;;;;;;15.32;3.50;;;14.00;99.90;;;;;;5054441;28;20119;-40
2023/08/07 01:46:21;;;;;;;13.73;3.17;;;14.00;99.90;;;;;;5035707;28;20059;-43
2023/08/07 01:48:46;;;;;;;17.58;3.67;;;13.90;99.90;;;;;;5036171;28;20087;-45
2023/08/07 01:51:12;;;;;;;18.45;3.63;;;13.90;99.90;;;;;;5052409;28;20417;-42
2023/08/07 01:53:38;;;;;;;9.88;2.95;;;13.90;99.90;;;;;;5043034;28;20098;-43
2023/08/07 01:56:04;;;;;;;15.20;3.47;;;13.90;99.90;;;;;;5031901;28;20406;-40
2023/08/07 01:58:29;;;;;;;13.65;3.22;;;13.80;99.90;;;;;;5042821;28;20155;-46
2023/08/07 02:00:55;;;;;;;19.92;3.78;;;13.80;99.90;;;;;;5049321;28;20596;-41
2023/08/07 02:03:20;;;;;;;14.63;2.67;;;13.90;99.90;;;;;;5041456;28;20114;-42
2023/08/07 02:05:47;;;;;;;13.00;2.88;;;13.70;99.90;;;;;;5048592;28;20057;-44
2023/08/07 02:08:14;;;;;;;9.80;2.85;;;13.80;99.90;;;;;;5025724;28;20065;-42
2023/08/07 02:10:40;;;;;;;13.20;3.30;;;13.70;99.90;;;;;;5054223;28;20048;-45
2023/08/07 02:13:05;;;;;;;15.82;4.20;;;13.70;99.90;;;;;;5046113;28;20470;-39
2023/08/07 02:15:31;;;;;;;16.35;3.92;;;13.70;99.90;;;;;;5036280;28;20473;-43
2023/08/07 02:17:57;;;;;;;13.65;2.75;;;13.70;99.90;;;;;;5048752;28;20102;-41
2023/08/07 02:20:22;;;;;;;10.15;3.05;;;13.70;99.90;;;;;;5051907;28;20052;-41
2023/08/07 02:22:48;;;;;;;11.25;3.10;;;13.70;99.90;;;;;;5051172;28;20520;-43
2023/08/07 02:25:14;;;;;;;10.30;2.88;;;13.70;99.90;;;;;;5055751;28;20489;-40
2023/08/07 02:27:39;;;;;;;11.00;2.83;;;13.70;99.90;;;;;;5039120;28;20109;-45
2023/08/07 02:30:06;;;;;;;17.33;3.80;;;13.70;99.90;;;;;;5034970;28;20052;-45
2023/08/07 02:32:31;;;;;;;16.08;3.50;;;13.60;99.90;;;;;;5045220;28;20553;-45
2023/08/07 02:34:57;;;;;;;13.10;2.90;;;13.60;99.90;;;;;;5054171;28;20236;-44
2023/08/07 02:37:23;;;;;;;15.40;3.70;;;13.60;99.90;;;;;;5055884;28;20138;-44
2023/08/07 02:39:49;;;;;;;15.13;3.20;;;13.50;99.90;;;;;;5043172;28;20056;-47
2023/08/07 02:42:14;;;;;;;15.48;3.33;;;13.50;99.90;;;;;;5043460;28;20131;-40
2023/08/07 02:44:40;;;;;;;12.55;3.47;;;13.50;99.90;;;;;;5036186;28;20060;-44
2023/08/07 02:47:06;;;;;;;16.15;3.35;;;13.60;99.90;;;;;;5036221;28;20278;-42
2023/08/07 02:49:32;;;;;;;11.27;3.80;;;13.60;99.90;;;;;;5051645;28;20045;-43
2023/08/07 02:51:58;;;;;;;10.23;3.63;;;13.50;99.90;;;;;;5055316;28;20069;-41
2023/08/07 02:54:24;;;;;;;16.52;3.53;;;13.60;99.90;;;;;;5055058;28;20467;-43
2023/08/07 02:56:49;;;;;;;17.80;3.28;;;13.50;99.90;;;;;;5045908;28;20044;-42
2023/08/07 02:59:16;;;;;;;16.67;4.20;;;13.50;99.90;;;;;;5055006;28;20044;-40
2023/08/07 03:01:43;;;;;;;16.25;3.90;;;13.60;99.90;;;;;;5045147;28;20063;-44
2023/08/07 03:04:09;;;;;;;20.40;4.38;;;13.50;99.90;;;;;;5053146;28;20044;-46
2023/08/07 03:06:34;;;;;;;14.60;3.95;;;13.60;99.90;;;;;;5037359;28;20122;-41
2023/08/07 03:09:00;;;;;;;17.67;5.05;;;13.70;99.90;;;;;;5040739;28;20661;-42
2023/08/07 03:11:26;;;;;;;16.17;4.10;;;13.80;99.90;;;;;;5025302;28;20552;-42
2023/08/07 03:13:51;;;;;;;10.38;3.80;;;13.80;99.90;;;;;;5027544;28;20489;-42
2023/08/07 03:16:17;;;;;;;12.63;4.53;;;13.90;99.90;;;;;;5056495;28;20048;-40
2023/08/07 03:18:43;;;;;;;14.52;4.40;;;14.00;99.90;;;;;;5053014;28;20048;-45
2023/08/07 03:21:08;;;;;;;10.90;4.07;;;13.90;99.90;;;;;;5034779;28;20045;-42
2023/08/07 03:23:34;;;;;;;14.70;4.30;;;14.00;99.90;;;;;;5039662;28;20603;-41
2023/08/07 03:26:10;;;;;;;11.57;3.97;;;14.00;99.90;;;;;;5027199;28;20044;-43
2023/08/07 03:28:36;;;;;;;12.52;3.88;;;14.10;99.90;;;;;;5033714;28;20216;-40
2023/08/07 03:31:03;;;;;;;14.30;3.97;;;14.00;99.90;;;;;;5036139;28;20077;-41
2023/08/07 03:33:29;;;;;;;12.60;3.70;;;14.10;99.90;;;;;;5032160;28;20059;-45
2023/08/07 03:35:54;;;;;;;11.13;3.85;;;14.00;99.90;;;;;;5038163;28;20048;-44
2023/08/07 03:38:20;;;;;;;12.13;4.13;;;14.10;99.90;;;;;;5054986;28;20052;-42
2023/08/07 03:40:46;;;;;;;14.30;4.28;;;14.10;99.90;;;;;;5055834;28;20044;-40
2023/08/07 03:43:11;;;;;;;14.13;4.90;;;14.10;99.90;;;;;;5041757;28;20109;-44
2023/08/07 03:45:38;;;;;;;16.95;5.40;;;14.20;99.90;;;;;;5056272;28;20055;-42
2023/08/07 03:48:03;;;;;;;19.98;6.15;;;14.10;99.90;;;;;;5054881;28;20411;-42
2023/08/07 03:50:30;;;;;;;17.20;5.65;;;14.20;99.90;;;;;;5054147;28;20099;-44
2023/08/07 03:52:56;;;;;;;20.65;5.03;;;14.20;99.90;;;;;;5054878;28;20080;-47
2023/08/07 03:55:22;;;;;;;18.80;5.43;;;14.20;99.90;;;;;;5045447;28;20120;-42
2023/08/07 03:57:47;;;;;;;20.35;5.47;;;14.20;99.90;;;;;;5048629;28;20553;-44
2023/08/07 04:00:13;;;;;;;20.70;5.20;;;14.10;99.90;;;;;;5044633;28;20739;-45
2023/08/07 04:02:39;;;;;;;19.23;6.05;;;14.20;99.90;;;;;;5050539;28;20475;-43
2023/08/07 04:05:05;;;;;;;27.98;6.32;;;14.10;99.90;;;;;;5042664;28;20045;-43
2023/08/07 04:07:31;;;;;;;16.80;5.65;;;14.00;99.90;;;;;;5047668;28;20059;-44
2023/08/07 04:09:57;;;;;;;23.80;6.20;;;14.00;99.90;;;;;;5045045;28;20564;-44
2023/08/07 04:12:22;;;;;;;22.67;5.10;;;14.10;99.90;;;;;;5050476;28;20037;-44
2023/08/07 04:14:48;;;;;;;23.58;6.03;;;14.10;99.90;;;;;;5046793;28;20581;-45
2023/08/07 04:17:14;;;;;;;19.45;6.05;;;14.10;99.90;;;;;;5054711;28;20052;-41
2023/08/07 04:19:40;;;;;;;17.85;5.43;;;14.00;99.90;;;;;;5044607;28;20048;-45
2023/08/07 04:22:05;;;;;;;21.20;5.50;;;14.00;99.90;;;;;;5045612;28;20048;-42
2023/08/07 04:24:31;;;;;;;11.70;4.38;;;14.10;99.90;;;;;;5036375;28;20052;-44
2023/08/07 04:26:56;;;;;;;13.55;4.85;;;14.10;99.90;;;;;;5054624;28;20068;-43
2023/08/07 04:29:23;;;;;;;18.63;5.10;;;14.10;99.90;;;;;;5036379;28;20497;-41
2023/08/07 04:31:49;;;;;;;14.52;4.32;;;14.20;99.90;;;;;;5053376;28;20167;-42
2023/08/07 04:34:14;;;;;;;16.75;3.88;;;14.10;99.90;;;;;;5054281;28;20044;-44
2023/08/07 04:36:40;;;;;;;14.45;4.22;;;14.10;99.90;;;;;;5054569;28;20049;-44
2023/08/07 04:39:07;;;;;;;12.70;4.20;;;14.10;99.90;;;;;;5053989;28;20048;-41
2023/08/07 04:41:32;;;;;;;12.88;4.57;;;14.10;99.90;;;;;;5053356;28;20045;-41
2023/08/07 04:43:58;;;;;;;14.15;4.15;;;14.10;99.90;;;;;;5054675;28;20152;-42
2023/08/07 04:46:24;;;;;;;10.70;4.32;;;14.20;99.90;;;;;;5032704;28;20057;-44
2023/08/07 04:48:49;;;;;;;10.38;4.53;;;14.10;99.90;;;;;;5043856;28;20051;-43
2023/08/07 04:51:15;;;;;;;14.38;4.90;;;14.20;99.90;;;;;;5051338;28;20515;-44
2023/08/07 04:53:41;;;;;;;14.25;5.30;;;14.20;99.90;;;;;;5034317;28;20637;-40
2023/08/07 04:56:06;;;;;;;21.67;5.82;;;14.20;99.90;;;;;;5051098;28;20048;-44
2023/08/07 04:58:32;;;;;;;16.80;5.18;;;14.10;99.90;;;;;;5053446;28;20045;-45
2023/08/07 05:01:00;;;;;;;19.70;5.18;;;14.10;99.90;;;;;;5037548;28;20047;-44
2023/08/07 05:03:30;;;;;;;11.15;4.47;;;14.00;99.90;;;;;;5045282;28;20041;-41
2023/08/07 05:06:02;;;;;;;12.68;4.72;;;14.00;99.90;;;;;;5031988;28;20138;-41
2023/08/07 05:08:28;;;;;;;21.27;5.25;;;14.00;99.90;;;;;;5025234;28;20056;-41
2023/08/07 05:10:53;;;;;;;12.25;4.22;;;14.10;99.90;;;;;;5039832;28;20495;-43
2023/08/07 05:13:19;;;;;;;23.90;5.20;;;14.10;99.90;;;;;;5040858;28;20475;-43
2023/08/07 05:15:47;;;;;;;20.23;5.60;;;14.20;99.90;;;;;;5053823;28;20398;-44
2023/08/07 05:18:13;;;;;;;18.35;5.28;;;14.40;99.90;;;;;;5035498;28;20083;-40
2023/08/07 05:20:38;;;;;;;12.73;4.50;;;14.70;99.90;;;;;;5040801;28;20557;-42
2023/08/07 05:23:05;;;;;;;18.75;5.82;;;15.20;99.90;;;;;;5038866;28;20126;-43
2023/08/07 05:25:31;;;;;;;20.55;5.30;;;15.30;99.90;;;;;;5051906;28;20053;-42
2023/08/07 05:27:56;;;;;;;14.35;4.45;;;15.20;99.90;;;;;;5035762;28;20502;-43
2023/08/07 05:30:22;;;;;;;13.00;5.03;;;15.20;99.90;;;;;;5036170;28;20068;-43
2023/08/07 05:32:48;;;;;;;19.25;6.10;;;15.20;99.90;;;;;;5044945;28;20442;-42
2023/08/07 05:35:13;;;;;;;21.90;5.68;;;15.20;99.90;;;;;;5031262;28;20499;-41
2023/08/07 05:37:39;;;;;;;15.52;4.70;;;15.50;99.90;;;;;;5045427;28;20080;-44
2023/08/07 05:40:06;;;;;;;20.67;4.60;;;15.70;99.90;;;;;;5033516;28;20066;-43
2023/08/07 05:42:31;;;;;;;21.70;5.30;;;15.70;99.90;;;;;;5053473;28;20107;-42
2023/08/07 05:44:58;;;;;;;18.08;5.68;;;15.60;99.90;;;;;;5053532;28;20167;-43
2023/08/07 05:47:24;;;;;;;17.77;5.07;;;15.50;99.90;;;;;;5049998;28;20516;-39
2023/08/07 05:49:49;;;;;;;24.67;6.00;;;15.40;99.90;;;;;;5056364;28;20044;-44
2023/08/07 05:52:15;;;;;;;16.70;5.93;;;15.30;99.90;;;;;;5056839;28;20388;-41
2023/08/07 05:54:41;;;;;;;17.05;5.88;;;15.20;99.90;;;;;;5052231;28;20044;-41
2023/08/07 05:57:06;;;;;;;20.52;5.90;;;15.20;99.90;;;;;;5047533;28;20072;-43
2023/08/07 05:59:34;;;;;;;16.40;4.57;;;15.20;99.90;;;;;;5037174;28;20136;-44
2023/08/07 06:02:00;;;;;;;16.67;4.80;;;15.10;99.90;;;;;;5038482;28;20146;-43
2023/08/07 06:04:25;;;;;;;14.32;5.25;;;15.00;99.90;;;;;;5039589;28;20593;-42
2023/08/07 06:06:51;;;;;;;16.77;4.50;;;15.00;99.90;;;;;;5048163;28;20040;-42
2023/08/07 06:09:17;;;;;;;21.65;5.43;;;14.90;99.90;;;;;;5042457;28;20048;-44
2023/08/07 06:11:43;;;;;;;17.08;5.00;;;14.90;99.90;;;;;;5045640;28;20045;-43
2023/08/07 06:14:09;;;;;;;17.05;5.07;;;15.00;99.90;;;;;;5043400;28;20063;-43
2023/08/07 06:16:34;;;;;;;19.02;5.38;;;15.10;99.90;;;;;;5057174;28;20040;-40
2023/08/07 06:19:00;;;;;;;13.45;4.65;;;15.30;99.90;;;;;;5008608;28;20052;-46
2023/08/07 06:21:28;;;;;;;10.85;3.88;;;15.30;99.90;;;;;;5055043;28;20043;-42
2023/08/07 06:23:54;;;;;;;14.70;4.38;;;15.30;99.90;;;;;;5021001;28;20522;-40
2023/08/07 06:26:19;;;;;;;11.02;4.75;;;15.30;99.90;;;;;;5049282;28;20087;-43
2023/08/07 06:28:45;;;;;;;14.98;4.45;;;15.30;99.90;;;;;;5052585;28;20081;-41
2023/08/07 06:31:11;;;;;;;15.90;4.70;;;15.20;99.90;;;;;;5052246;28;20060;-41
2023/08/07 06:33:37;;;;;;;8.90;3.75;;;15.20;99.90;;;;;;5052099;28;20052;-41
2023/08/07 06:36:04;;;;;;;12.52;4.10;;;15.20;99.90;;;;;;5047128;28;20079;-45
2023/08/07 06:38:30;;;;;;;10.48;4.03;;;15.20;99.90;;;;;;5055973;28;20055;-44
2023/08/07 06:40:56;;;;;;;11.88;3.58;;;15.10;99.90;;;;;;5056989;28;20052;-46
2023/08/07 06:43:22;;;;;;;10.43;3.58;;;15.10;99.90;;;;;;5056145;28;20407;-44
2023/08/07 06:45:55;;;;;;;12.50;3.78;;;15.10;99.90;;;;;;5057366;28;20055;-42
2023/08/07 06:48:21;;;;;;;10.88;3.38;;;15.40;99.90;;;;;;5040333;28;20036;-44
2023/08/07 06:50:47;;;;;;;16.48;3.75;;;15.70;99.90;;;;;;5040712;28;20519;-45
2023/08/07 06:53:13;;;;;;;13.20;3.53;;;15.90;99.90;;;;;;5041755;28;20760;-44
2023/08/07 06:55:40;;;;;;;11.68;3.55;;;16.10;99.90;;;;;;5038639;28;20075;-42
2023/08/07 06:58:06;;;;;;;8.48;3.25;;;16.40;99.90;;;;;;5040481;28;20110;-43
2023/08/07 07:00:33;;;;;;;13.05;3.97;;;16.60;99.90;;;;;;5048353;28;20044;-46
2023/08/07 07:02:59;;;;;;;10.43;4.10;;;16.70;99.90;;;;;;5036032;28;20056;-45
2023/08/07 07:05:25;;;;;;;17.48;4.53;;;16.70;99.90;;;;;;5040093;28;20037;-42
2023/08/07 07:07:50;;;;;;;9.90;3.17;;;16.60;99.90;;;;;;5043478;28;20049;-42
2023/08/07 07:10:16;;;;;;;13.35;3.70;;;16.60;99.90;;;;;;5040259;28;20380;-42
2023/08/07 07:12:42;;;;;;;7.00;3.05;;;16.60;99.90;;;;;;5022112;28;20039;-44
2023/08/07 07:15:08;;;;;;;7.10;2.50;;;16.40;99.90;;;;;;5038600;28;20078;-43
2023/08/07 07:17:34;;;;;;;8.68;3.17;;;15.90;99.90;;;;;;5046285;28;20041;-43
2023/08/07 07:20:00;;;;;;;6.03;2.22;;;15.70;99.90;;;;;;5038038;28;20040;-44
2023/08/07 07:22:26;;;;;;;8.38;2.47;;;15.30;99.90;;;;;;5042431;28;20044;-41
2023/08/07 07:24:51;;;;;;;6.00;2.45;;;15.10;99.90;;;;;;5037927;28;20103;-46
2023/08/07 07:27:17;;;;;;;6.25;2.13;;;15.00;99.90;;;;;;5024908;28;20131;-45
2023/08/07 07:29:43;;;;;;;6.47;3.08;;;15.00;99.90;;;;;;5039908;28;20608;-41
2023/08/07 07:32:08;;;;;;;7.10;2.42;;;15.10;99.90;;;;;;5042744;28;20049;-44
2023/08/07 07:34:34;;;;;;;8.63;3.13;;;15.30;99.90;;;;;;5042996;28;20403;-44
2023/08/07 07:37:00;;;;;;;11.32;3.10;;;15.80;99.90;;;;;;5044930;28;20135;-48
2023/08/07 07:39:25;;;;;;;7.82;3.42;;;16.50;99.90;;;;;;5054739;28;20124;-44
2023/08/07 07:41:51;;;;;;;9.50;2.78;;;17.20;99.90;;;;;;5048884;28;20429;-41
2023/08/07 07:44:17;;;;;;;6.68;2.92;;;17.70;99.90;;;;;;5039201;28;20485;-44
2023/08/07 07:46:42;;;;;;;12.35;3.45;;;18.30;99.90;;;;;;5042432;28;20041;-45
2023/08/07 07:49:08;;;;;;;8.93;3.08;;;18.70;99.90;;;;;;5040342;28;20040;-45
2023/08/07 07:51:35;;;;;;;10.15;3.58;;;19.00;99.90;;;;;;5038324;28;20040;-45
2023/08/07 07:54:01;;;;;;;10.60;3.78;;;19.00;99.90;;;;;;5036225;28;20052;-44
2023/08/07 07:56:26;;;;;;;9.75;3.53;;;19.40;99.90;;;;;;5023429;28;20084;-41
2023/08/07 07:58:52;;;;;;;7.97;3.08;;;19.30;99.90;;;;;;5016535;28;20126;-41
2023/08/07 08:01:18;;;;;;;5.95;2.95;;;18.60;99.90;;;;;;5043907;28;20126;-42
2023/08/07 08:03:44;;;;;;;8.48;3.60;;;17.90;99.90;;;;;;5019650;28;20049;-42
2023/08/07 08:06:12;;;;;;;9.15;3.17;;;17.40;99.90;;;;;;5042268;28;20040;-45
2023/08/07 08:08:37;;;;;;;9.43;3.92;;;16.90;99.90;;;;;;5039533;28;20563;-41
2023/08/07 08:11:03;;;;;;;10.20;3.60;;;16.70;99.90;;;;;;5049959;28;20049;-44
2023/08/07 08:13:29;;;;;;;10.15;3.28;;;16.70;99.90;;;;;;5039832;28;20124;-48
2023/08/07 08:15:55;;;;;;;15.18;4.00;;;16.60;99.90;;;;;;5041631;28;20041;-44
2023/08/07 08:18:21;;;;;;;13.80;4.50;;;16.50;99.90;;;;;;5019408;28;20104;-42
2023/08/07 08:20:46;;;;;;;17.25;4.57;;;16.50;99.90;;;;;;5041987;28;20044;-44
2023/08/07 08:23:12;;;;;;;12.13;4.32;;;16.50;99.90;;;;;;5042730;28;20041;-48
2023/08/07 08:25:38;;;;;;;12.63;3.90;;;16.80;99.90;;;;;;5024339;28;21012;-42
2023/08/07 08:28:04;;;;;;;11.35;3.67;;;17.10;99.90;;;;;;5027153;28;20507;-43
2023/08/07 08:30:29;;;;;;;14.38;4.70;;;17.50;99.90;;;;;;5054312;28;20063;-46
2023/08/07 08:32:56;;;;;;;15.57;4.28;;;17.90;99.90;;;;;;5042250;28;20067;-41
2023/08/07 08:35:22;;;;;;;15.10;4.05;;;18.00;99.90;;;;;;5026323;28;20212;-46
2023/08/07 08:37:47;;;;;;;16.38;4.90;;;18.20;99.90;;;;;;5036249;28;20052;-42
2023/08/07 08:40:16;;;;;;;13.05;3.97;;;18.30;99.90;;;;;;5041498;28;20052;-43
2023/08/07 08:42:43;;;;;;;8.48;3.47;;;18.10;99.90;;;;;;5055101;28;20052;-44
2023/08/07 08:45:12;;;;;;;8.80;3.08;;;18.00;99.90;;;;;;5041896;28;20135;-45
2023/08/07 08:47:39;;;;;;;9.95;3.03;;;18.10;99.90;;;;;;5041428;28;20468;-43
2023/08/07 08:50:09;;;;;;;9.05;3.22;;;18.10;99.90;;;;;;5053895;28;20048;-42
2023/08/07 08:52:38;;;;;;;7.95;3.00;;;18.30;99.90;;;;;;5039499;28;20041;-44
2023/08/07 08:55:04;;;;;;;13.25;3.38;;;18.40;99.90;;;;;;5042780;28;20055;-47
2023/08/07 08:57:30;;;;;;;11.48;3.22;;;18.50;99.90;;;;;;5036695;28;20271;-44
2023/08/07 08:59:59;;;;;;;9.77;3.83;;;18.70;99.90;;;;;;5054272;28;20052;-42
2023/08/07 09:02:26;;;;;;;17.80;5.00;;;18.80;99.90;;;;;;5040632;28;20102;-43
2023/08/07 09:04:51;;;;;;;8.20;3.47;;;18.70;99.90;;;;;;5037081;28;20219;-41
2023/08/07 09:07:20;;;;;;;10.02;3.65;;;18.80;99.90;;;;;;5051863;28;20325;-45
2023/08/07 09:09:47;;;;;;;11.63;4.90;;;19.00;99.90;;;;;;5043009;28;20443;-41
2023/08/07 09:12:29;;;;;;;9.13;3.72;;;18.80;99.90;;;;;;5050201;28;20160;-41
2023/08/07 09:14:58;;;;;;;12.40;3.60;;;18.50;99.90;;;;;;5028534;28;20066;-43
2023/08/07 09:17:28;;;;;;;12.02;3.45;;;18.20;99.90;;;;;;5041421;28;20491;-43
2023/08/07 09:19:53;;;;;;;11.75;3.50;;;17.90;99.90;;;;;;5060130;28;20048;-46
2023/08/07 09:22:19;;;;;;;11.13;3.10;;;18.10;99.90;;;;;;5045936;28;20045;-41
2023/08/07 09:24:46;;;;;;;12.90;3.80;;;18.20;99.90;;;;;;5039991;28;20114;-44
2023/08/07 09:27:12;;;;;;;10.55;3.45;;;18.50;99.90;;;;;;5042270;28;20125;-47
2023/08/07 09:29:41;;;;;;;10.35;3.08;;;18.60;99.90;;;;;;5048841;28;20049;-41
2023/08/07 09:32:18;;;;;;;10.18;3.30;;;18.70;99.90;;;;;;5058525;28;20136;-45
2023/08/07 09:34:44;;;;;;;9.32;3.67;;;19.00;99.90;;;;;;5060550;28;20048;-44
2023/08/07 09:37:10;;;;;;;8.77;3.47;;;19.20;99.90;;;;;;5054129;28;20048;-47
2023/08/07 09:39:37;;;;;;;13.00;4.10;;;19.30;99.90;;;;;;5039477;28;20428;-46
2023/08/07 09:42:04;;;;;;;13.73;4.18;;;19.20;99.90;;;;;;5059487;28;20530;-41
2023/08/07 09:44:36;;;;;;;7.90;2.90;;;18.80;99.90;;;;;;5060199;28;20071;-44
2023/08/07 09:47:13;;;;;;;;;;;18.80;99.90;;;;;;5060697;28;20048;-41
2023/08/07 09:49:38;;;;;;;7.70;3.17;;;18.70;99.90;;;;;;5059765;28;19924;-46
2023/08/07 09:52:09;;;;;;;11.10;3.15;;;19.00;99.90;;;;;;5050050;28;20045;-44
2023/08/07 09:54:36;;;;;;;7.65;2.67;;;19.40;99.90;;;;;;5056795;28;20050;-45
2023/08/07 09:57:02;;;;;;;11.68;3.47;;;19.80;99.90;;;;;;5053825;28;20048;-41
2023/08/07 09:59:28;;;;;;;7.07;2.70;;;19.60;99.90;;;;;;5047615;28;20068;-46
2023/08/07 10:01:55;;;;;;;11.55;3.25;;;19.30;99.90;;;;;;5035344;28;20052;-41
2023/08/07 10:04:21;;;;;;;12.20;3.55;;;18.90;99.90;;;;;;5034876;28;20121;-44
2023/08/07 10:06:47;;;;;;;9.50;3.53;;;18.60;99.90;;;;;;5053749;28;20609;-43
2023/08/07 10:09:13;;;;;;;8.82;3.08;;;18.50;99.90;;;;;;5050606;28;20562;-42
2023/08/07 10:11:41;;;;;;;9.05;3.22;;;18.40;99.90;;;;;;5043727;28;20090;-41
2023/08/07 10:14:08;;;;;;;10.65;3.65;;;18.30;99.90;;;;;;5057531;28;20483;-45
2023/08/07 10:16:39;;;;;;;8.45;3.40;;;18.30;99.90;;;;;;5049500;28;20499;-43
2023/08/07 10:19:08;;;;;;;11.73;3.45;;;18.20;99.90;;;;;;5057224;28;20048;-44
2023/08/07 10:21:39;;;;;;;9.48;3.15;;;18.40;99.90;;;;;;5058977;28;20049;-43
2023/08/07 10:24:06;;;;;;;5.60;2.60;;;18.60;99.90;;;;;;5054052;28;20052;-43
2023/08/07 10:26:34;;;;;;;11.25;3.95;;;18.80;99.90;;;;;;5045819;28;20076;-41
2023/08/07 10:29:04;;;;;;;11.93;3.13;;;18.80;99.90;;;;;;5024931;28;20538;-47
2023/08/07 10:31:31;;;;;;;6.55;2.60;;;18.80;99.90;;;;;;5040631;28;20115;-46
2023/08/07 10:33:58;;;;;;;11.13;3.20;;;18.70;99.90;;;;;;5025380;28;20056;-41
2023/08/07 10:36:31;;;;;;;10.00;2.95;;;18.60;99.90;;;;;;5043094;28;20124;-44
2023/08/07 10:39:11;;;;;;;10.02;2.80;;;18.70;99.90;;;;;;5051470;28;20053;-46
2023/08/07 10:41:47;;;;;;;7.97;2.88;;;19.10;99.90;;;;;;5043880;28;20044;-45
2023/08/07 10:44:23;;;;;;;7.15;2.95;;;19.10;99.90;;;;;;5039037;28;20049;-43
2023/08/07 10:46:54;;;;;;;7.75;2.90;;;19.30;99.90;;;;;;5036563;28;20187;-45
2023/08/07 10:49:40;;;;;;;7.07;3.03;;;19.60;99.90;;;;;;5039307;28;20045;-44
2023/08/07 10:52:11;;;;;;;10.65;3.05;;;19.50;99.90;;;;;;5027483;28;20071;-42
2023/08/07 10:54:50;;;;;;;9.65;3.00;;;19.50;99.90;;;;;;5032340;28;20612;-45
2023/08/07 10:57:18;;;;;;;10.40;3.10;;;19.50;99.90;;;;;;5036560;28;20059;-46
2023/08/07 10:59:51;;;;;;;5.68;2.60;;;19.50;99.90;;;;;;5037185;28;20559;-42
2023/08/07 11:02:24;;;;;;;;;;;19.60;99.90;;;;;;5036798;28;20048;-41
2023/08/07 11:04:51;;;;;;;9.20;3.28;;;19.50;99.90;;;;;;5045609;28;20032;-45
2023/08/07 11:07:28;;;;;;;8.88;3.20;;;19.60;99.90;;;;;;5036071;28;20511;-46
2023/08/07 11:09:55;;;;;;;7.70;3.20;;;19.70;99.90;;;;;;5046628;28;20048;-45
2023/08/07 11:12:20;;;;;;;8.65;3.05;;;19.80;99.90;;;;;;5054762;28;20048;-44
2023/08/07 11:14:46;;;;;;;7.20;2.97;;;19.90;99.90;;;;;;5055773;28;20056;-44
2023/08/07 11:17:12;;;;;;;7.10;2.53;;;19.80;99.90;;;;;;5041809;28;20091;-47
2023/08/07 11:19:39;;;;;;;7.32;2.55;;;19.80;99.90;;;;;;5051609;28;20055;-44
2023/08/07 11:22:05;;;;;;;6.55;2.75;;;19.60;99.90;;;;;;5028483;28;20573;-46
2023/08/07 11:24:31;;;;;;;5.68;2.45;;;19.50;99.90;;;;;;5038395;28;20624;-45
2023/08/07 11:26:58;;;;;;;7.20;2.85;;;19.40;99.90;;;;;;5048326;28;20052;-43
2023/08/07 11:29:24;;;;;;;10.25;3.15;;;19.40;99.90;;;;;;5039733;28;20040;-43
2023/08/07 11:31:51;;;;;;;5.07;2.33;;;19.30;99.90;;;;;;5041590;28;20437;-46
2023/08/07 11:34:18;;;;;;;9.68;2.83;;;19.30;99.90;;;;;;5049471;28;20036;-45
2023/08/07 11:36:45;;;;;;;7.32;3.03;;;19.30;99.90;;;;;;5031774;28;20147;-43
2023/08/07 11:39:12;;;;;;;9.15;2.63;;;19.30;99.90;;;;;;5055117;28;20052;-48
2023/08/07 11:41:38;;;;;;;7.55;2.72;;;19.30;99.90;;;;;;5041294;28;20287;-43
2023/08/07 11:44:04;;;;;;;7.50;2.83;;;19.50;99.90;;;;;;5054880;28;20074;-44
2023/08/07 11:46:30;;;;;;;8.35;3.00;;;19.50;99.90;;;;;;5039919;28;20131;-45
2023/08/07 11:48:56;;;;;;;10.60;2.97;;;19.50;99.90;;;;;;5045176;28;20127;-43
2023/08/07 11:51:23;;;;;;;9.73;3.47;;;19.30;99.90;;;;;;5019370;28;20060;-44
2023/08/07 11:53:49;;;;;;;9.20;2.85;;;19.20;99.90;;;;;;5055230;28;20571;-48
2023/08/07 11:56:15;;;;;;;6.38;2.83;;;19.00;99.90;;;;;;5016258;28;20064;-48
2023/08/07 11:58:42;;;;;;;10.07;3.10;;;18.60;99.90;;;;;;5035068;28;20053;-45
2023/08/07 12:01:14;;;;;;;9.05;3.47;;;18.20;99.90;;;;;;5030523;28;20435;-41
2023/08/07 12:03:43;;;;;;;6.15;2.80;;;18.10;99.90;;;;;;5035269;28;20044;-44
2023/08/07 12:06:09;;;;;;;10.57;3.90;;;18.00;99.90;;;;;;5049043;28;20044;-42
2023/08/07 12:08:39;;;;;;;6.18;2.67;;;17.90;99.90;;;;;;5034135;28;20136;-44
2023/08/07 12:11:11;;;;;;;8.52;2.88;;;17.90;99.90;;;;;;5031966;28;20594;-44
2023/08/07 12:13:44;;;;;;;6.45;2.42;;;17.90;99.90;;;;;;5047495;28;20048;-42
2023/08/07 12:16:15;;;;;;;4.88;2.47;;;17.90;99.90;;;;;;5042379;28;20057;-47
2023/08/07 12:18:47;;;;;;;7.63;2.60;;;17.90;99.90;;;;;;5054298;28;20044;-46
2023/08/07 12:21:16;;;;;;;5.72;2.60;;;17.90;99.90;;;;;;5044896;28;20063;-44
2023/08/07 12:23:41;;;;;;;8.23;3.88;;;18.00;99.90;;;;;;5047617;28;20131;-45
2023/08/07 12:26:07;;;;;;;6.53;3.38;;;17.70;99.90;;;;;;5027308;28;20056;-44
2023/08/07 12:28:35;;;;;;;5.28;2.75;;;17.80;99.90;;;;;;5050069;28;20074;-41
2023/08/07 12:31:00;;;;;;;8.50;3.30;;;17.60;99.90;;;;;;5054353;28;20122;-45
2023/08/07 12:33:28;;;;;;;3.95;2.00;;;17.80;99.90;;;;;;5054604;28;20048;-49
2023/08/07 12:35:54;;;;;;;4.63;1.98;;;17.90;99.90;;;;;;5054595;28;20394;-44
2023/08/07 12:38:20;;;;;;;7.95;2.92;;;17.90;99.90;;;;;;5053716;28;20044;-47
2023/08/07 12:40:46;;;;;;;5.18;2.42;;;17.80;99.90;;;;;;5033006;28;20052;-42